Time;durP1;ratioP1;P1;durP2;ratioP2;P2;SDS_P1;SDS_P2;PMS_P1;PMS_P2;Temp;Humidity;BMP_temperature;BMP_pressure;BME280_temperature;BME280_humidity;BME280_pressure;Samples;Min_cycle;Max_cycle;Signal;HPM_P1;HPM_P2
2021/10/21 00:00:37;;;;;;;5.10;2.40;;;;;;;15.37;79.63;98766.45;115762;1192;59090;-79
2021/10/21 00:03:04;;;;;;;4.20;1.80;;;;;;;15.35;79.71;98751.27;115787;1192;72587;-78
2021/10/21 00:05:30;;;;;;;3.80;2.10;;;;;;;15.32;79.77;98738.40;115767;1192;58850;-78
2021/10/21 00:07:57;;;;;;;3.90;1.50;;;;;;;15.28;80.06;98743.35;115725;1192;61646;-78
2021/10/21 00:10:24;;;;;;;5.30;2.10;;;;;;;15.23;80.32;98743.63;115787;1192;59219;-78
2021/10/21 00:12:50;;;;;;;4.40;2.70;;;;;;;15.20;80.53;98739.96;115716;1186;72081;-78
2021/10/21 00:15:17;;;;;;;3.30;2.50;;;;;;;15.16;80.86;98738.20;115669;1192;71559;-78
2021/10/21 00:17:43;;;;;;;5.80;2.20;;;;;;;15.13;80.99;98725.52;115563;1192;63750;-78
2021/10/21 00:20:11;;;;;;;2.50;1.70;;;;;;;15.12;81.20;98703.56;115393;1193;61320;-78
2021/10/21 00:22:41;;;;;;;4.00;2.10;;;;;;;15.10;81.31;98690.35;115846;1192;75689;-79
2021/10/21 00:25:08;;;;;;;4.80;2.50;;;;;;;15.09;81.56;98681.05;115855;1192;71856;-77
2021/10/21 00:27:35;;;;;;;4.00;2.10;;;;;;;15.08;81.71;98675.12;115583;1192;72750;-78
2021/10/21 00:30:02;;;;;;;4.10;1.40;;;;;;;15.09;82.01;98673.09;115836;1184;59457;-78
2021/10/21 00:32:30;;;;;;;5.50;1.70;;;;;;;15.13;81.99;98662.33;115642;1192;59997;-78
2021/10/21 00:34:57;;;;;;;6.30;2.60;;;;;;;15.19;81.83;98654.10;115731;1192;75646;-78
2021/10/21 00:37:24;;;;;;;7.60;1.90;;;;;;;15.28;81.58;98646.85;115587;1192;70215;-78
2021/10/21 00:39:50;;;;;;;4.80;3.00;;;;;;;15.36;81.15;98634.41;115480;1193;72884;-78
2021/10/21 00:42:17;;;;;;;5.00;2.10;;;;;;;15.46;80.67;98617.87;115572;1192;61451;-78
2021/10/21 00:44:44;;;;;;;4.00;2.10;;;;;;;15.55;80.30;98606.64;115694;1192;60305;-78
2021/10/21 00:47:11;;;;;;;4.10;2.00;;;;;;;15.61;80.03;98595.66;115779;1192;75343;-78
2021/10/21 00:49:37;;;;;;;4.10;2.30;;;;;;;15.64;79.80;98584.98;115671;1192;71037;-79
2021/10/21 00:52:06;;;;;;;2.80;2.00;;;;;;;15.65;79.80;98568.58;115693;1192;73890;-78
2021/10/21 00:54:35;;;;;;;4.70;2.60;;;;;;;15.65;79.78;98555.21;115754;1192;62239;-78
2021/10/21 00:57:03;;;;;;;3.70;1.80;;;;;;;15.65;79.75;98545.86;115758;1192;60522;-79
2021/10/21 00:59:33;;;;;;;4.10;2.00;;;;;;;15.66;79.69;98536.45;115740;1192;75144;-79
2021/10/21 01:02:00;;;;;;;6.90;2.30;;;;;;;15.65;79.65;98520.90;115567;1192;72096;-78
2021/10/21 01:04:27;;;;;;;3.50;1.70;;;;;;;15.65;79.74;98502.78;115784;1192;72578;-78
2021/10/21 01:06:55;;;;;;;3.50;2.40;;;;;;;15.64;79.67;98491.23;115712;1192;62016;-78
2021/10/21 01:09:23;;;;;;;4.20;2.30;;;;;;;15.63;79.79;98483.58;115588;1191;62381;-78
2021/10/21 01:11:50;;;;;;;5.40;2.10;;;;;;;15.63;79.81;98481.54;115880;1191;74708;-78
2021/10/21 01:14:18;;;;;;;2.90;2.00;;;;;;;15.60;79.96;98473.30;115854;1191;72015;-78
2021/10/21 01:16:45;;;;;;;2.60;1.50;;;;;;;15.58;80.06;98459.20;115627;1192;72533;-78
2021/10/21 01:19:17;;;;;;;3.10;2.40;;;;;;;15.57;80.19;98453.80;115678;1192;61711;-79
2021/10/21 01:21:45;;;;;;;3.40;1.80;;;;;;;15.56;80.24;98439.14;115753;1192;60077;-79
2021/10/21 01:24:12;;;;;;;2.00;1.20;;;;;;;15.55;80.36;98428.02;115728;1192;74594;-79
2021/10/21 01:26:41;;;;;;;7.70;1.70;;;;;;;15.55;80.34;98415.15;115094;1192;71192;-79
2021/10/21 01:29:08;;;;;;;3.20;1.70;;;;;;;15.56;80.33;98404.36;115807;1192;73742;-78
2021/10/21 01:31:37;;;;;;;7.20;2.00;;;;;;;15.57;80.18;98388.59;115858;1192;59972;-78
2021/10/21 01:34:07;;;;;;;3.50;1.80;;;;;;;15.59;80.14;98374.91;115861;1192;61648;-78
2021/10/21 01:36:35;;;;;;;2.10;1.60;;;;;;;15.58;80.14;98360.64;115757;1191;75776;-78
2021/10/21 01:39:05;;;;;;;2.50;1.60;;;;;;;15.57;80.18;98347.81;115646;1192;72202;-78
2021/10/21 01:41:32;;;;;;;2.20;1.60;;;;;;;15.56;80.27;98345.73;115759;1192;73439;-78
2021/10/21 01:43:58;;;;;;;1.80;0.90;;;;;;;15.54;80.39;98339.47;115748;1192;62945;-78
2021/10/21 01:46:26;;;;;;;2.90;1.30;;;;;;;15.53;80.50;98328.88;115621;1192;61313;-78
2021/10/21 01:48:53;;;;;;;2.20;1.40;;;;;;;15.52;80.51;98312.95;115797;1192;75727;-78
2021/10/21 01:51:20;;;;;;;2.20;1.40;;;;;;;15.51;80.55;98321.98;115776;1192;73216;-78
2021/10/21 01:53:46;;;;;;;4.40;2.40;;;;;;;15.50;80.69;98314.08;115777;1192;72204;-78
2021/10/21 01:56:13;;;;;;;4.60;1.30;;;;;;;15.50;80.69;98314.08;115744;1192;59240;-78
2021/10/21 01:58:40;;;;;;;2.60;1.30;;;;;;;15.50;80.73;98316.80;115467;1192;60274;-79
2021/10/21 02:01:06;;;;;;;2.60;1.40;;;;;;;15.51;80.78;98319.31;115727;1191;74655;-78
2021/10/21 02:03:33;;;;;;;2.70;1.00;;;;;;;15.51;80.77;98319.16;115561;1191;72147;-78
2021/10/21 02:06:00;;;;;;;2.10;1.30;;;;;;;15.53;80.69;98307.02;115696;1191;59799;-78
2021/10/21 02:08:26;;;;;;;3.30;1.30;;;;;;;15.55;80.66;98312.69;115856;1184;61560;-78
2021/10/21 02:10:53;;;;;;;3.50;1.50;;;;;;;15.58;80.42;98308.43;115840;1191;60424;-78
2021/10/21 02:13:20;;;;;;;2.80;1.40;;;;;;;15.62;80.41;98306.35;115844;1184;60936;-78
2021/10/21 02:15:46;;;;;;;2.30;1.50;;;;;;;15.65;80.27;98296.06;115797;1191;70989;-79
2021/10/21 02:18:13;;;;;;;3.30;1.60;;;;;;;15.69;80.14;98278.76;115823;1191;59255;-79
2021/10/21 02:20:39;;;;;;;2.90;1.60;;;;;;;15.73;80.06;98277.39;115402;1192;59324;-79
2021/10/21 02:23:09;;;;;;;4.70;1.40;;;;;;;15.76;80.52;98271.73;115270;1192;59013;-79
2021/10/21 02:25:35;;;;;;;2.80;1.10;;;;;;;15.75;82.22;98278.31;115655;1192;74755;-78
2021/10/21 02:28:02;;;;;;;2.90;1.60;;;;;;;15.64;83.80;98276.09;115733;1192;59160;-78
2021/10/21 02:30:28;;;;;;;4.90;1.70;;;;;;;15.50;85.17;98266.09;115741;1192;58937;-77
2021/10/21 02:32:55;;;;;;;2.80;1.20;;;;;;;15.32;87.04;98253.41;115754;1192;62777;-78
2021/10/21 02:35:22;;;;;;;4.90;2.10;;;;;;;15.13;88.59;98247.45;115744;1192;58774;-78
2021/10/21 02:37:49;;;;;;;3.20;1.80;;;;;;;14.93;90.36;98240.80;115732;1192;74653;-78
2021/10/21 02:40:16;;;;;;;5.30;1.70;;;;;;;14.76;91.26;98213.42;114862;1193;71501;-78
2021/10/21 02:42:42;;;;;;;4.90;3.10;;;;;;;14.62;92.02;98201.11;114765;1192;72555;-78
2021/10/21 02:45:09;;;;;;;5.60;1.90;;;;;;;14.51;92.91;98191.02;115565;1192;58996;-77
2021/10/21 02:47:36;;;;;;;3.00;1.70;;;;;;;14.42;93.37;98172.10;115742;1192;59938;-77
2021/10/21 02:50:03;;;;;;;4.60;1.80;;;;;;;14.35;93.75;98147.75;115766;1192;74836;-77
2021/10/21 02:52:29;;;;;;;5.40;1.30;;;;;;;14.29;94.33;98141.71;115714;1192;72006;-77
2021/10/21 02:54:56;;;;;;;3.00;1.80;;;;;;;14.24;94.29;98115.98;115628;1192;71934;-77
2021/10/21 02:57:22;;;;;;;2.90;2.10;;;;;;;14.22;94.07;98091.60;115018;1192;61862;-78
2021/10/21 02:59:49;;;;;;;2.60;1.80;;;;;;;14.23;93.42;98075.61;115739;1192;58976;-78
2021/10/21 03:02:15;;;;;;;3.00;1.30;;;;;;;14.22;93.24;98056.68;115727;1192;58927;-78
2021/10/21 03:04:42;;;;;;;2.30;1.30;;;;;;;14.20;92.85;98059.39;115794;1192;71330;-76
2021/10/21 03:07:08;;;;;;;4.90;1.70;;;;;;;14.17;92.44;98053.80;115712;1192;58836;-77
2021/10/21 03:09:35;;;;;;;2.30;1.20;;;;;;;14.15;92.02;98050.52;115733;1192;62716;-77
2021/10/21 03:12:02;;;;;;;1.80;0.80;;;;;;;14.13;92.02;98044.40;115766;1192;59192;-77
2021/10/21 03:14:28;;;;;;;3.40;1.20;;;;;;;14.10;91.88;98031.60;115116;1193;74303;-77
2021/10/21 03:16:55;;;;;;;3.40;1.30;;;;;;;14.08;91.89;98022.27;115635;1192;59087;-77
2021/10/21 03:19:21;;;;;;;2.00;1.20;;;;;;;14.04;91.66;98008.44;115604;1192;72700;-77
2021/10/21 03:21:48;;;;;;;1.80;0.80;;;;;;;14.04;91.28;98005.56;115628;1192;61686;-76
2021/10/21 03:24:15;;;;;;;2.20;0.90;;;;;;;14.05;91.04;97996.55;115653;1192;58765;-77
2021/10/21 03:26:41;;;;;;;2.40;1.00;;;;;;;14.08;90.55;97994.44;115783;1192;76094;-77
2021/10/21 03:29:08;;;;;;;1.90;0.90;;;;;;;14.10;90.11;97992.42;115867;1191;58895;-76
2021/10/21 03:31:35;;;;;;;5.00;1.10;;;;;;;14.13;89.53;97968.05;115726;1192;72690;-76
2021/10/21 03:34:01;;;;;;;2.80;0.90;;;;;;;14.13;89.11;97953.02;115511;1191;63110;-77
2021/10/21 03:36:29;;;;;;;2.10;1.00;;;;;;;14.14;88.67;97948.05;115680;1192;60975;-77
2021/10/21 03:38:55;;;;;;;2.40;0.70;;;;;;;14.14;88.40;97933.92;115818;1192;74779;-77
2021/10/21 03:41:22;;;;;;;1.20;0.60;;;;;;;14.13;87.60;97918.52;115531;1186;59499;-77
2021/10/21 03:43:48;;;;;;;1.10;0.70;;;;;;;14.17;86.60;97929.23;115769;1192;72719;-76
2021/10/21 03:46:15;;;;;;;1.30;0.70;;;;;;;14.22;86.13;97925.14;115820;1192;59382;-76
2021/10/21 03:48:41;;;;;;;1.20;0.70;;;;;;;14.25;85.51;97953.02;115861;1192;61418;-76
2021/10/21 03:51:08;;;;;;;2.30;0.80;;;;;;;14.34;84.01;97958.14;115769;1193;59039;-76
2021/10/21 03:53:34;;;;;;;7.50;0.70;;;;;;;14.41;83.28;97965.98;115613;1192;72036;-76
2021/10/21 03:56:01;;;;;;;2.70;0.70;;;;;;;14.46;81.81;97975.00;115590;1192;59013;-77
2021/10/21 03:58:28;;;;;;;1.80;0.70;;;;;;;14.53;80.05;97987.54;115837;1192;60141;-77
2021/10/21 04:00:55;;;;;;;3.70;0.80;;;;;;;14.54;79.55;98001.73;115840;1192;60402;-77
2021/10/21 04:03:21;;;;;;;2.70;0.40;;;;;;;14.58;79.12;97993.33;115818;1192;74765;-77
2021/10/21 04:05:48;;;;;;;1.60;0.60;;;;;;;14.58;79.69;97997.77;115839;1192;59095;-77
2021/10/21 04:08:14;;;;;;;2.50;0.80;;;;;;;14.56;79.49;98020.55;115806;1192;73138;-77
2021/10/21 04:10:42;;;;;;;0.80;0.30;;;;;;;14.37;72.51;98049.73;115763;1192;61996;-77
2021/10/21 04:13:12;;;;;;;1.50;0.50;;;;;;;14.11;72.05;98023.92;115200;1192;60891;-78
2021/10/21 04:15:40;;;;;;;1.40;0.50;;;;;;;13.87;72.62;98015.59;115893;1191;73676;-78
2021/10/21 04:18:07;;;;;;;1.40;0.30;;;;;;;13.64;74.29;98018.60;115886;1192;70977;-78
2021/10/21 04:20:33;;;;;;;3.00;0.30;;;;;;;13.47;75.22;98028.80;115880;1192;58850;-78
2021/10/21 04:23:00;;;;;;;1.50;0.70;;;;;;;13.33;75.65;98041.14;115834;1192;61668;-77
2021/10/21 04:25:27;;;;;;;2.30;0.40;;;;;;;13.28;74.74;98043.91;115877;1192;60916;-77
2021/10/21 04:27:54;;;;;;;4.50;0.30;;;;;;;13.30;72.82;98045.27;115865;1192;59811;-78
2021/10/21 04:30:21;;;;;;;3.80;0.50;;;;;;;13.31;72.95;98025.26;115664;1192;72362;-77
2021/10/21 04:32:47;;;;;;;4.20;0.60;;;;;;;13.27;71.97;98056.04;115809;1191;59494;-77
2021/10/21 04:35:14;;;;;;;2.30;0.40;;;;;;;13.30;70.22;98038.73;115860;1191;60031;-78
2021/10/21 04:37:40;;;;;;;1.50;0.40;;;;;;;13.28;70.53;98038.45;115888;1191;60429;-77
2021/10/21 04:40:07;;;;;;;0.50;0.20;;;;;;;13.24;69.73;98064.56;115829;1192;74539;-77
2021/10/21 04:42:35;;;;;;;2.00;0.60;;;;;;;13.22;69.00;98062.77;115845;1192;71088;-77
2021/10/21 04:45:02;;;;;;;1.70;0.40;;;;;;;13.21;67.82;98080.11;115806;1192;73646;-77
2021/10/21 04:47:29;;;;;;;4.40;1.50;;;;;;;13.21;67.27;98085.40;115313;1192;60461;-76
2021/10/21 04:49:56;;;;;;;1.90;0.40;;;;;;;13.21;67.26;98076.73;115827;1191;59083;-77
2021/10/21 04:52:22;;;;;;;2.00;0.40;;;;;;;13.21;67.88;98093.65;115825;1192;59495;-77
2021/10/21 04:54:48;;;;;;;3.50;0.70;;;;;;;13.18;68.56;98084.58;115917;1192;58534;-77
2021/10/21 04:57:15;;;;;;;3.80;0.40;;;;;;;13.15;68.65;98081.94;115845;1191;58993;-77
2021/10/21 04:59:41;;;;;;;0.60;0.30;;;;;;;13.13;67.91;98087.57;115880;1192;58830;-77
2021/10/21 05:02:09;;;;;;;1.00;0.10;;;;;;;13.13;68.36;98087.89;115791;1192;58989;-77
2021/10/21 05:04:37;;;;;;;2.30;0.60;;;;;;;13.06;70.40;98090.72;115600;1191;74234;-77
2021/10/21 05:07:03;;;;;;;5.10;0.70;;;;;;;12.87;72.05;98099.04;115660;1192;72033;-78
2021/10/21 05:09:30;;;;;;;3.60;0.30;;;;;;;12.63;74.13;98100.78;115831;1192;59017;-78
2021/10/21 05:11:56;;;;;;;2.50;0.50;;;;;;;12.33;75.69;98082.42;115829;1192;59027;-78
2021/10/21 05:14:23;;;;;;;0.50;0.10;;;;;;;12.10;76.57;98081.11;115958;1191;60331;-78
2021/10/21 05:16:50;;;;;;;3.30;0.50;;;;;;;11.91;77.90;98068.08;115906;1192;73803;-78
2021/10/21 05:19:17;;;;;;;2.30;0.70;;;;;;;11.76;78.81;98066.51;115881;1192;72386;-78
2021/10/21 05:21:43;;;;;;;2.70;0.50;;;;;;;11.68;79.24;98058.44;115924;1191;72319;-78
2021/10/21 05:24:10;;;;;;;6.80;0.80;;;;;;;11.65;79.62;98057.29;115750;1191;59173;-78
2021/10/21 05:26:36;;;;;;;3.00;0.50;;;;;;;11.62;79.83;98058.94;115217;1192;61027;-78
2021/10/21 05:29:03;;;;;;;1.80;0.50;;;;;;;11.64;79.62;98057.33;115852;1191;59027;-78
2021/10/21 05:31:29;;;;;;;3.00;0.50;;;;;;;11.65;79.61;98052.83;115835;1192;58976;-78
2021/10/21 05:33:56;;;;;;;2.00;0.30;;;;;;;11.67;79.20;98052.48;115776;1192;72435;-78
2021/10/21 05:36:23;;;;;;;3.70;0.50;;;;;;;11.72;77.70;98058.28;115818;1192;60458;-77
2021/10/21 05:38:51;;;;;;;5.10;0.70;;;;;;;11.81;77.41;98052.48;115896;1191;59309;-77
2021/10/21 05:41:17;;;;;;;0.80;0.20;;;;;;;11.88;77.02;98056.15;115898;1192;76047;-77
2021/10/21 05:43:44;;;;;;;8.20;0.60;;;;;;;11.93;76.58;98054.84;115611;1192;60950;-77
2021/10/21 05:46:10;;;;;;;1.90;0.40;;;;;;;12.00;75.46;98052.67;115857;1192;59001;-76
2021/10/21 05:48:37;;;;;;;3.60;0.80;;;;;;;12.06;75.42;98050.20;115622;1192;59154;-77
2021/10/21 05:51:04;;;;;;;1.70;0.60;;;;;;;12.09;74.72;98045.71;115305;1192;61008;-77
2021/10/21 05:53:30;;;;;;;6.30;0.70;;;;;;;12.11;74.82;98044.02;115931;1191;75282;-77
2021/10/21 05:55:57;;;;;;;3.20;0.30;;;;;;;12.14;74.38;98043.59;115845;1184;58876;-77
2021/10/21 05:58:24;;;;;;;3.80;0.40;;;;;;;12.15;75.08;98045.88;115843;1192;59120;-77
2021/10/21 06:00:51;;;;;;;3.20;0.50;;;;;;;12.13;74.93;98047.92;115713;1191;61927;-77
2021/10/21 06:03:18;;;;;;;1.50;0.30;;;;;;;12.09;74.88;98034.55;114988;1193;60913;-77
2021/10/21 06:05:44;;;;;;;2.80;0.40;;;;;;;12.06;74.60;98042.65;115627;1177;59161;-76
2021/10/21 06:08:10;;;;;;;1.00;0.20;;;;;;;12.04;74.39;98039.06;115846;1192;59019;-77
2021/10/21 06:10:37;;;;;;;1.50;0.30;;;;;;;12.04;74.73;98050.43;115831;1192;58861;-77
2021/10/21 06:13:05;;;;;;;7.80;0.90;;;;;;;12.04;74.88;98044.06;115788;1193;62632;-77
2021/10/21 06:15:34;;;;;;;3.60;0.60;;;;;;;12.04;74.90;98035.13;115877;1192;60224;-77
2021/10/21 06:18:04;;;;;;;2.80;0.50;;;;;;;12.04;75.10;98027.21;115852;1192;74530;-77
2021/10/21 06:20:30;;;;;;;2.00;0.40;;;;;;;12.02;75.24;98031.23;115581;1177;71001;-77
2021/10/21 06:22:57;;;;;;;0.70;0.20;;;;;;;12.01;75.26;98030.06;115629;1192;70342;-77
2021/10/21 06:25:24;;;;;;;5.00;0.40;;;;;;;12.06;75.37;98031.54;115844;1192;59080;-77
2021/10/21 06:27:51;;;;;;;3.10;0.60;;;;;;;12.06;75.22;98032.92;115819;1192;60218;-77
2021/10/21 06:30:17;;;;;;;1.30;0.30;;;;;;;12.07;75.41;98031.52;115862;1192;59669;-77
2021/10/21 06:32:44;;;;;;;1.10;0.20;;;;;;;12.08;75.46;98036.19;115884;1191;58982;-77
2021/10/21 06:35:14;;;;;;;5.60;0.40;;;;;;;12.06;76.05;98028.77;115867;1192;74024;-77
2021/10/21 06:37:46;;;;;;;1.20;0.40;;;;;;;12.03;76.00;98035.77;115631;1191;60635;-78
2021/10/21 06:40:15;;;;;;;1.90;0.20;;;;;;;12.05;75.11;98042.33;115424;1192;60975;-78
2021/10/21 06:42:42;;;;;;;0.70;0.30;;;;;;;12.07;74.89;98036.66;115763;1193;75596;-79
2021/10/21 06:45:13;;;;;;;2.30;0.30;;;;;;;12.12;73.71;98044.03;115972;1192;71735;-79
2021/10/21 06:47:43;;;;;;;0.40;0.10;;;;;;;12.20;73.56;98070.42;115837;1192;73601;-79
2021/10/21 06:50:11;;;;;;;0.90;0.10;;;;;;;12.20;75.49;98042.80;115881;1191;62048;-79
2021/10/21 06:52:39;;;;;;;1.10;0.30;;;;;;;12.11;76.04;98051.79;115723;1192;61319;-79
2021/10/21 06:55:07;;;;;;;1.60;0.30;;;;;;;12.07;75.94;98043.78;115367;1192;76296;-78
2021/10/21 06:57:51;;;;;;;1.90;0.30;;;;;;;12.03;76.13;98046.34;115847;1191;71195;-78
2021/10/21 07:00:19;;;;;;;1.30;0.40;;;;;;;12.03;75.75;98045.48;115791;1192;73639;-78
2021/10/21 07:02:46;;;;;;;1.50;0.30;;;;;;;12.08;75.40;98049.42;115880;1192;60297;-79
2021/10/21 07:05:13;;;;;;;0.50;0.20;;;;;;;12.15;75.51;98037.31;115876;1191;59953;-79
2021/10/21 07:07:40;;;;;;;0.50;0.10;;;;;;;12.22;75.34;98043.49;115851;1192;74593;-79
2021/10/21 07:10:08;;;;;;;0.60;0.10;;;;;;;12.31;74.78;98047.42;115872;1192;71521;-79
2021/10/21 07:12:36;;;;;;;2.50;0.20;;;;;;;12.36;74.28;98048.09;115755;1191;73572;-80
2021/10/21 07:15:06;;;;;;;1.00;0.20;;;;;;;12.39;73.70;98056.53;115830;1192;60386;-78
2021/10/21 07:17:34;;;;;;;1.60;0.30;;;;;;;12.44;73.67;98061.63;115833;1192;61881;-78
2021/10/21 07:20:01;;;;;;;2.40;1.00;;;;;;;12.46;73.16;98058.71;115858;1191;74540;-78
2021/10/21 07:22:27;;;;;;;3.80;0.30;;;;;;;12.48;73.50;98057.15;115792;1192;71636;-78
2021/10/21 07:24:54;;;;;;;1.00;0.20;;;;;;;12.47;74.03;98075.44;115712;1192;72714;-79
2021/10/21 07:27:21;;;;;;;2.00;0.10;;;;;;;12.45;74.53;98074.82;115899;1192;59463;-78
2021/10/21 07:29:48;;;;;;;1.10;0.30;;;;;;;12.39;75.56;98075.73;115807;1192;60296;-78
2021/10/21 07:32:15;;;;;;;1.50;0.30;;;;;;;12.32;76.33;98081.67;115804;1191;74742;-78
2021/10/21 07:34:42;;;;;;;0.70;0.20;;;;;;;12.23;77.11;98088.91;115842;1192;71043;-77
2021/10/21 07:37:11;;;;;;;0.90;0.10;;;;;;;12.11;79.09;98091.98;115902;1192;71132;-77
2021/10/21 07:39:39;;;;;;;0.50;0.20;;;;;;;11.95;80.33;98094.60;115892;1192;60935;-77
2021/10/21 07:42:08;;;;;;;2.20;0.20;;;;;;;11.76;82.40;98099.01;115920;1191;60757;-78
2021/10/21 07:44:37;;;;;;;1.80;0.20;;;;;;;11.61;83.07;98091.85;115963;1192;75678;-79
2021/10/21 07:47:04;;;;;;;0.30;0.10;;;;;;;11.52;83.93;98101.73;115866;1192;72167;-77
2021/10/21 07:49:31;;;;;;;1.20;0.10;;;;;;;11.47;83.83;98111.64;115861;1192;73570;-79
2021/10/21 07:51:59;;;;;;;0.70;0.10;;;;;;;11.42;84.47;98111.90;115771;1192;62921;-78
2021/10/21 07:54:29;;;;;;;0.70;0.10;;;;;;;11.39;84.60;98102.02;115893;1192;61100;-78
2021/10/21 07:56:57;;;;;;;0.70;0.10;;;;;;;11.39;84.67;98112.15;115940;1192;74616;-77
2021/10/21 07:59:26;;;;;;;0.80;0.30;;;;;;;11.40;84.27;98127.10;115873;1192;71518;-77
2021/10/21 08:01:55;;;;;;;0.70;0.20;;;;;;;11.47;83.52;98114.40;115879;1192;73391;-77
2021/10/21 08:04:22;;;;;;;3.10;0.30;;;;;;;11.52;83.36;98125.88;115772;1192;61966;-77
2021/10/21 08:06:50;;;;;;;1.30;0.20;;;;;;;11.56;82.83;98129.70;115920;1192;61603;-77
2021/10/21 08:09:20;;;;;;;1.00;0.50;;;;;;;11.54;83.29;98153.59;115668;1192;59116;-76
2021/10/21 08:11:50;;;;;;;1.00;0.20;;;;;;;11.44;84.57;98160.02;115790;1192;70817;-76
2021/10/21 08:14:18;;;;;;;1.50;0.20;;;;;;;11.33;85.45;98175.09;115915;1192;72595;-78
2021/10/21 08:16:45;;;;;;;0.60;0.10;;;;;;;11.22;86.24;98186.15;115911;1192;60928;-78
2021/10/21 08:19:13;;;;;;;1.10;0.30;;;;;;;11.09;87.57;98195.82;115899;1191;61001;-78
2021/10/21 08:21:40;;;;;;;2.00;0.30;;;;;;;10.88;90.34;98286.25;115938;1192;74550;-79
2021/10/21 08:24:08;;;;;;;0.60;0.10;;;;;;;10.40;92.38;98260.05;115703;1192;71124;-80
2021/10/21 08:26:37;;;;;;;2.30;0.20;;;;;;;9.85;92.79;98364.70;115696;1192;73597;-79
2021/10/21 08:29:07;;;;;;;1.00;0.20;;;;;;;9.37;94.16;98370.48;115948;1192;64749;-80
2021/10/21 08:31:35;;;;;;;4.10;0.40;;;;;;;9.07;96.31;98383.38;115943;1184;60483;-79
2021/10/21 08:34:02;;;;;;;1.00;0.40;;;;;;;8.87;97.65;98390.42;115947;1192;74658;-79
2021/10/21 08:36:29;;;;;;;3.20;0.70;;;;;;;8.76;99.46;98385.02;115953;1192;72618;-80
2021/10/21 08:38:56;;;;;;;1.70;0.50;;;;;;;8.68;100.00;98398.65;115981;1192;72828;-80
2021/10/21 08:41:25;;;;;;;1.30;0.10;;;;;;;8.59;99.99;98416.94;115947;1191;61618;-80
2021/10/21 08:43:51;;;;;;;0.80;0.30;;;;;;;8.54;100.00;98429.96;115829;1192;60000;-78
2021/10/21 08:46:24;;;;;;;2.10;0.40;;;;;;;8.49;100.00;98442.85;115602;1192;58977;-79
2021/10/21 08:48:58;;;;;;;0.60;0.30;;;;;;;8.47;100.00;98456.09;115857;1192;70669;-79
2021/10/21 08:51:26;;;;;;;0.80;0.20;;;;;;;8.43;100.00;98478.64;115954;1192;72515;-80
2021/10/21 08:53:53;;;;;;;4.60;0.50;;;;;;;8.40;100.00;98492.05;115932;1192;62994;-79
2021/10/21 08:56:22;;;;;;;0.90;0.30;;;;;;;8.42;100.00;98504.00;115943;1192;59196;-80
2021/10/21 08:58:53;;;;;;;1.70;0.30;;;;;;;8.42;100.00;98522.45;115927;1192;77146;-79
2021/10/21 09:01:30;;;;;;;0.20;0.10;;;;;;;8.45;100.00;98536.66;115575;1192;70791;-79
2021/10/21 09:04:18;;;;;;;2.70;0.60;;;;;;;8.48;100.00;98554.11;115621;1191;72419;-79
2021/10/21 09:09:29;;;;;;;0.10;0.10;;;;;;;8.54;100.00;98594.16;115933;1192;60681;-72
2021/10/21 09:12:25;;;;;;;0.70;0.40;;;;;;;8.59;100.00;98610.64;115918;1192;75897;-71
2021/10/21 09:14:53;;;;;;;;;;;;;;;8.62;100.00;98645.34;115847;1192;71014;-72
2021/10/21 09:17:26;;;;;;;1.00;0.50;;;;;;;8.63;100.00;98649.20;115887;1192;73565;-72
2021/10/21 09:19:54;;;;;;;1.30;0.40;;;;;;;8.63;100.00;98673.89;115487;1191;61980;-71
2021/10/21 09:22:25;;;;;;;1.20;0.40;;;;;;;8.58;100.00;98696.77;115871;1184;61337;-72
2021/10/21 09:24:54;;;;;;;1.70;0.90;;;;;;;8.52;100.00;98717.11;115873;1192;75236;-71
2021/10/21 09:27:24;;;;;;;1.30;0.80;;;;;;;8.49;100.00;98721.93;115932;1191;71165;-73
2021/10/21 09:29:54;;;;;;;6.00;0.70;;;;;;;8.46;100.00;98743.41;115805;1192;72024;-72
2021/10/21 09:32:29;;;;;;;1.20;0.60;;;;;;;8.46;100.00;98745.44;115939;1192;62924;-72
2021/10/21 09:34:57;;;;;;;0.90;0.30;;;;;;;8.48;100.00;98756.93;115957;1192;61046;-72
2021/10/21 09:37:31;;;;;;;3.70;0.70;;;;;;;8.51;100.00;98767.09;115950;1192;74792;-72
2021/10/21 09:40:10;;;;;;;3.60;0.60;;;;;;;8.58;100.00;98775.73;115235;1192;72071;-72
2021/10/21 09:42:42;;;;;;;1.30;0.70;;;;;;;8.63;100.00;98789.61;115941;1192;72522;-72
2021/10/21 09:45:31;;;;;;;3.30;0.80;;;;;;;8.72;100.00;98808.58;115934;1192;62977;-72
2021/10/21 09:48:00;;;;;;;4.20;1.00;;;;;;;8.85;100.00;98823.36;115983;1192;61362;-72
2021/10/21 09:50:38;;;;;;;2.70;1.00;;;;;;;8.98;100.00;98830.15;115964;1192;74626;-72
2021/10/21 09:53:31;;;;;;;3.00;1.10;;;;;;;9.05;100.00;98860.02;115938;1192;71008;-72
2021/10/21 09:56:05;;;;;;;3.70;1.10;;;;;;;9.04;100.00;98865.80;115559;1192;72849;-70
2021/10/21 09:58:37;;;;;;;2.10;0.90;;;;;;;8.98;100.00;98861.73;115509;1192;61901;-72
2021/10/21 10:01:08;;;;;;;2.60;1.00;;;;;;;8.92;100.00;98873.94;115856;1192;61136;-71
2021/10/21 10:03:43;;;;;;;3.70;1.30;;;;;;;8.96;100.00;98876.66;115891;1192;74572;-72
2021/10/21 10:06:11;;;;;;;3.80;1.90;;;;;;;9.04;100.00;98898.35;115876;1191;72024;-71
2021/10/21 10:08:39;;;;;;;3.60;1.30;;;;;;;9.12;99.93;98886.28;115910;1192;73871;-71
2021/10/21 10:11:09;;;;;;;5.40;1.70;;;;;;;9.20;99.82;98886.45;115611;1193;62895;-72
2021/10/21 10:13:35;;;;;;;3.10;1.60;;;;;;;9.29;99.68;98888.11;115827;1184;60115;-71
2021/10/21 10:16:02;;;;;;;4.40;1.60;;;;;;;9.39;99.03;98899.84;115097;1192;60978;-72
2021/10/21 10:18:32;;;;;;;6.50;1.60;;;;;;;9.43;98.50;98911.50;115876;1192;70983;-73
2021/10/21 10:21:06;;;;;;;7.90;1.50;;;;;;;9.37;98.58;98933.31;115904;1192;71361;-72
2021/10/21 10:23:36;;;;;;;3.80;0.90;;;;;;;9.24;99.01;98942.93;115898;1192;60291;-71
2021/10/21 10:26:02;;;;;;;2.30;1.00;;;;;;;9.08;99.22;98951.89;115928;1192;60198;-72
2021/10/21 10:28:54;;;;;;;3.50;0.60;;;;;;;8.90;100.00;98956.73;115919;1192;74639;-72
2021/10/21 10:31:41;;;;;;;0.80;0.30;;;;;;;8.80;100.00;98961.39;115909;1192;72201;-71
2021/10/21 10:34:33;;;;;;;4.20;1.30;;;;;;;8.83;100.00;98963.83;115922;1192;72589;-72
2021/10/21 10:37:12;;;;;;;7.50;2.30;;;;;;;8.97;100.00;98974.55;115335;1192;63594;-72
2021/10/21 10:40:02;;;;;;;4.90;1.30;;;;;;;9.13;100.00;98971.54;115905;1192;59060;-72
2021/10/21 10:42:29;;;;;;;5.20;2.20;;;;;;;9.41;100.00;98987.45;115937;1191;74564;-72
2021/10/21 10:44:57;;;;;;;8.00;2.10;;;;;;;9.65;100.00;98989.95;115964;1192;59316;-72
2021/10/21 10:47:50;;;;;;;7.60;2.40;;;;;;;9.86;100.00;98993.43;115929;1192;72243;-72
2021/10/21 10:50:38;;;;;;;7.30;1.90;;;;;;;10.11;99.07;98986.11;115916;1192;62099;-72
2021/10/21 10:53:09;;;;;;;9.00;2.90;;;;;;;10.35;97.07;99003.89;115497;1192;60954;-72
2021/10/21 10:55:39;;;;;;;9.20;2.40;;;;;;;10.57;96.61;99006.53;115894;1192;74685;-72
2021/10/21 10:58:16;;;;;;;7.10;2.80;;;;;;;10.79;95.26;99013.08;115895;1192;72583;-72
2021/10/21 11:00:55;;;;;;;5.70;1.60;;;;;;;10.99;92.25;99015.11;115874;1192;71453;-73
2021/10/21 11:03:32;;;;;;;6.20;1.70;;;;;;;11.20;90.34;99018.70;115894;1191;61145;-73
2021/10/21 11:06:20;;;;;;;2.90;1.00;;;;;;;11.39;88.40;99024.04;115840;1192;59043;-72
2021/10/21 11:08:49;;;;;;;17.90;2.70;;;;;;;11.58;87.87;99033.80;115837;1192;74660;-73
2021/10/21 11:11:47;;;;;;;8.50;2.00;;;;;;;11.61;87.23;99049.00;115923;1192;72038;-73
2021/10/21 11:14:19;;;;;;;14.50;2.20;;;;;;;11.45;85.72;99067.77;115412;1192;73758;-73
2021/10/21 11:16:52;;;;;;;7.40;2.00;;;;;;;11.34;85.47;99074.91;115881;1192;61931;-74
2021/10/21 11:19:44;;;;;;;5.20;1.30;;;;;;;11.30;86.45;99078.70;115931;1192;59950;-74
2021/10/21 11:22:19;;;;;;;8.20;2.30;;;;;;;11.14;87.29;99085.52;115923;1192;75740;-74
2021/10/21 11:24:48;;;;;;;6.90;1.60;;;;;;;10.95;87.98;99096.61;115894;1192;72187;-74
2021/10/21 11:27:19;;;;;;;5.20;1.60;;;;;;;10.76;89.64;99116.87;115888;1191;73910;-74
2021/10/21 11:29:48;;;;;;;7.40;2.30;;;;;;;10.59;89.95;99121.35;115904;1192;61700;-74
2021/10/21 11:32:16;;;;;;;8.30;1.60;;;;;;;10.62;90.36;99132.43;115466;1192;61273;-74
2021/10/21 11:34:48;;;;;;;10.10;1.70;;;;;;;11.04;89.38;99131.80;115552;1192;73665;-73
2021/10/21 11:37:14;;;;;;;8.90;2.70;;;;;;;11.34;88.28;99136.85;115924;1192;71281;-74